Oklahoma City, OK (73101)

1:37 AM CDT on April 26, 2017 (GMT -0500)
Downtown | | Change Station

Elev 1220 ft 35.46 °N, 97.51 °W | Updated 1 second ago

Mostly Cloudy
Mostly Cloudy
55.6 °F
Feels Like 55.6 °F
N
23.0
Wind Variable Wind from ENE
Gusts 23.0 mph

Today
High -- | Low -- °F
--% Chance of Precip.
Yesterday
High -- | Low -- °F
Precip. -- in
Pressure 29.42 in
Visibility 10.0 miles
Clouds Few 1300 ft
Scattered Clouds 7000 ft
Mostly Cloudy 15000 ft
Mostly Cloudy 20000 ft
Dew Point 51 °F
Humidity 85%
Rainfall 0.00 in
Snow Depth Not available.
6:43 AM 8:12 PM
Waning Crescent, 0% visible
METAR KOKC 260452Z 36011KT 10SM FEW013 SCT070 BKN150 BKN200 15/13 A2945 RMK AO2 SLP962 FRQ LTGICCC DSNT E-SE CB DSNT E-SE MOV NE T01500133
Pressure 29.42 in
Visibility 10.0 miles
Clouds Few 1300 ft
Scattered Clouds 7000 ft
Mostly Cloudy 15000 ft
Mostly Cloudy 20000 ft
Dew Point 51 °F
Humidity 85%
Rainfall 0.00 in
Snow Depth Not available.
6:43 AM 8:12 PM
Waning Crescent, 0% visible
METAR KOKC 260452Z 36011KT 10SM FEW013 SCT070 BKN150 BKN200 15/13 A2945 RMK AO2 SLP962 FRQ LTGICCC DSNT E-SE CB DSNT E-SE MOV NE T01500133

Get Severe Weather Alerts

Thanks for signing up!

Be on the lookout for a verification email in your inbox.

You'll start receiving the daily forecast at 8 AM.

×

10-Day Weather Forecast

Almanac

Astronomy

Apr. 26, 2017 Rise Set
Actual Time
Civil Twilight
Nautical Twilight
Astronomical Twilight
Moon
Length of Visible Light
Length of Day
Tomorrow will be .
, % of the Moon is Illuminated

Today's Extremes

State Highs State Lows

Community

WunderPhotos

WunderBlog® & News

Nearby

Air Quality

  Air Quality AQ Index Pollutant
Not available.

Snow Depth

Station Depth Elevation

Earthquake Activity

City Distance Mag. Time & Date
Minimum magnitude displayed is 2.5.

Coastal Water Temperatures

Place Temperature

Stations

Nearby Weather Stations

Station Location Temp. Windchill Dew Point Humidity Wind Precip. Elev Updated Type
                   

Watches & Warnings

There are currently no watches in effect.